Capitol Logistics 2451

Operating for GTI



KATL
Hartsfield - Jackson Atlanta International Airport
Atlanta, Georgia
KJFK
John F Kennedy International Airport
New York, New York

Activity Log

Date Flight Route Aircraft Duration
07/05/2021 CPX2451 PHIIL2 GRD Q64 TYI J209 ORF J121 SIE CAMRN4 A30F 1h 56m
04/20/2021 CPX2451 PHIIL2 GRD Q64 TYI J209 ORF J121 SIE CAMRN4 B752 2h 10m

Route Details

Aircraft Information
Primary: Boeing 767-300BDSF
Backup: Airbus A300-600F
Route Data
Distance: 661nm
Duration: 2h 00m
Recm'd Route: PHIIL2 GRD Q64 TYI J209 ORF J121 SIE CAMRN4
Origin Wx: KATL 020552Z 32007KT 10SM FEW040 SCT250 24/21 A3001 RMK AO2 SLP149 T02440206 10283 20244 57001
Dest. Wx: KJFK 020551Z 23011KT 10SM SCT031 BKN170 20/18 A2984 RMK AO2 SLP103 60004 T02000183 10222 20189 55012
Notes: